Time;durP1;ratioP1;P1;durP2;ratioP2;P2;SDS_P1;SDS_P2;PMS_P1;PMS_P2;Temp;Humidity;BMP_temperature;BMP_pressure;BME280_temperature;BME280_humidity;BME280_pressure;Samples;Min_cycle;Max_cycle;Signal;HPM_P1;HPM_P2
2024/01/29 00:00:49;;;;;;;38.63;16.33;;;;;;;-0.27;nan;102607.84;4981577;28;20049;-69
2024/01/29 00:03:14;;;;;;;34.40;14.82;;;;;;;-0.13;nan;102630.28;4980952;28;20026;-68
2024/01/29 00:05:40;;;;;;;30.95;14.60;;;;;;;-0.13;nan;102637.22;4980138;28;20105;-68
2024/01/29 00:08:06;;;;;;;37.22;16.20;;;;;;;;;;4979891;28;20027;-68
2024/01/29 00:10:31;;;;;;;35.80;15.93;;;;;;;;;;4978755;28;20567;-68
2024/01/29 00:12:56;;;;;;;37.20;14.75;;;;;;;;;;4979566;28;20454;-69
2024/01/29 00:15:22;;;;;;;28.73;12.97;;;;;;;;;;4978961;28;20105;-69
2024/01/29 00:17:47;;;;;;;29.35;12.57;;;;;;;;;;4961167;28;20599;-69
2024/01/29 00:20:12;;;;;;;26.67;12.15;;;;;;;;;;4979065;28;20065;-70
2024/01/29 00:22:38;;;;;;;28.60;11.25;;;;;;;;;;4978018;28;20029;-69
2024/01/29 00:25:03;;;;;;;23.17;10.53;;;;;;;;;;4976069;28;20107;-69
2024/01/29 00:27:28;;;;;;;23.55;11.30;;;;;;;;;;4980016;28;20733;-69
2024/01/29 00:29:54;;;;;;;25.90;10.90;;;;;;;-0.25;nan;102644.84;4979138;28;20036;-69
2024/01/29 00:32:19;;;;;;;23.77;11.55;;;;;;;-0.17;nan;102653.88;4977910;28;20272;-69
2024/01/29 00:34:46;;;;;;;26.67;11.82;;;;;;;-0.26;nan;102637.19;4976615;28;20023;-68
2024/01/29 00:37:12;;;;;;;26.63;12.82;;;;;;;-0.16;nan;102653.78;4975482;28;20141;-68
2024/01/29 00:39:37;;;;;;;24.67;12.15;;;;;;;-0.89;nan;102551.47;4980910;28;20395;-67
2024/01/29 00:42:03;;;;;;;29.45;12.50;;;;;;;-0.26;nan;102632.84;4979694;28;20030;-69
2024/01/29 00:44:28;;;;;;;24.48;10.63;;;;;;;-0.26;nan;102644.97;4978162;28;20443;-69
2024/01/29 00:46:54;;;;;;;26.27;10.80;;;;;;;-0.19;nan;102660.91;4977019;28;20038;-69
2024/01/29 00:49:20;;;;;;;22.98;10.27;;;;;;;-0.31;nan;102647.84;4977142;28;20480;-69
2024/01/29 00:51:45;;;;;;;29.35;10.98;;;;;;;-0.35;nan;102646.38;4977121;28;20041;-69
2024/01/29 00:54:11;;;;;;;28.98;12.00;;;;;;;-0.30;nan;102654.66;4977866;28;20030;-69
2024/01/29 00:56:36;;;;;;;27.60;12.23;;;;;;;-0.35;nan;102653.31;4978457;28;20023;-68
2024/01/29 00:59:01;;;;;;;25.92;12.30;;;;;;;-0.47;nan;102653.16;4957817;28;20101;-69
2024/01/29 01:01:27;;;;;;;31.15;11.93;;;;;;;-0.57;nan;102671.97;4977819;28;20037;-69
2024/01/29 01:03:52;;;;;;;26.35;12.07;;;;;;;-0.75;nan;102666.97;4976929;28;20030;-69
2024/01/29 01:06:18;;;;;;;29.63;13.05;;;;;;;-0.77;nan;102668.00;4975097;28;20035;-69
2024/01/29 01:08:43;;;;;;;27.60;12.45;;;;;;;-0.78;nan;102668.94;4972623;28;20034;-68
2024/01/29 01:11:08;;;;;;;30.63;13.25;;;;;;;-0.84;nan;102670.13;4980747;28;20472;-68
2024/01/29 01:13:34;;;;;;;26.95;11.77;;;;;;;-0.97;nan;102656.28;4978190;28;20038;-69
2024/01/29 01:15:59;;;;;;;26.77;11.60;;;;;;;-0.88;nan;102676.44;4976869;28;20023;-69
2024/01/29 01:18:25;;;;;;;26.08;11.77;;;;;;;-0.90;nan;102676.50;4979503;28;20385;-69
2024/01/29 01:20:50;;;;;;;28.45;12.07;;;;;;;-0.94;nan;102667.25;4977186;28;21394;-68
2024/01/29 01:23:16;;;;;;;24.95;11.02;;;;;;;-0.94;nan;102663.84;4975613;28;20606;-68
2024/01/29 01:25:41;;;;;;;26.15;11.32;;;;;;;-0.91;nan;102674.00;4978537;28;20145;-68
2024/01/29 01:28:08;;;;;;;25.27;10.75;;;;;;;-1.02;nan;102650.56;4976212;28;20034;-69
2024/01/29 01:30:34;;;;;;;23.02;10.95;;;;;;;-0.95;nan;102664.78;4977635;28;20030;-69
2024/01/29 01:32:59;;;;;;;28.52;11.43;;;;;;;-0.86;nan;102667.66;4959993;28;20036;-69
2024/01/29 01:35:24;;;;;;;27.23;11.18;;;;;;;-0.84;nan;102659.78;4978686;28;20543;-69
2024/01/29 01:37:50;;;;;;;28.58;11.93;;;;;;;-0.88;nan;102637.63;4975046;28;20051;-68
2024/01/29 01:40:15;;;;;;;26.33;11.15;;;;;;;-0.82;nan;102641.59;4979231;28;20022;-69
2024/01/29 01:42:42;;;;;;;26.65;12.13;;;;;;;-0.83;nan;102640.75;4978514;28;20026;-69
2024/01/29 01:45:08;;;;;;;28.63;12.75;;;;;;;-0.77;nan;102649.88;4980996;28;20022;-69
2024/01/29 01:47:35;;;;;;;33.58;13.77;;;;;;;-0.92;nan;102633.56;4976985;28;20030;-69
2024/01/29 01:50:01;;;;;;;31.20;14.07;;;;;;;-0.93;nan;102627.56;4979877;28;20027;-69
2024/01/29 01:52:26;;;;;;;35.63;15.23;;;;;;;-0.92;nan;102638.72;4979504;28;20032;-70
2024/01/29 01:54:53;;;;;;;29.27;14.02;;;;;;;-0.88;nan;102635.03;4977548;28;20029;-70
2024/01/29 01:57:18;;;;;;;29.85;14.18;;;;;;;-0.81;nan;102656.16;4978380;28;20042;-70
2024/01/29 01:59:44;;;;;;;37.30;13.02;;;;;;;-0.95;nan;102633.75;4979478;28;20038;-70
2024/01/29 02:02:10;;;;;;;29.17;12.70;;;;;;;-0.63;nan;102700.78;4978828;28;20023;-70
2024/01/29 02:04:36;;;;;;;28.02;12.75;;;;;;;-1.01;nan;102626.38;4976414;28;20023;-70
2024/01/29 02:07:02;;;;;;;27.30;12.57;;;;;;;-1.03;nan;102630.78;4976478;28;20047;-70
2024/01/29 02:09:28;;;;;;;24.73;11.45;;;;;;;-0.97;nan;102640.78;4981616;28;20027;-71
2024/01/29 02:11:53;;;;;;;28.35;11.48;;;;;;;-1.06;nan;102637.00;4977188;28;20061;-70
2024/01/29 02:14:19;;;;;;;28.63;11.95;;;;;;;-1.03;nan;102643.72;4982441;28;20030;-69
2024/01/29 02:16:44;;;;;;;24.48;10.50;;;;;;;-1.09;nan;102626.84;4979689;28;20110;-68
2024/01/29 02:19:15;;;;;;;22.45;10.73;;;;;;;-1.30;nan;102588.44;4984766;28;20042;-70
2024/01/29 02:21:41;;;;;;;24.23;11.05;;;;;;;-1.12;nan;102627.84;4964001;28;20018;-70
2024/01/29 02:24:07;;;;;;;24.15;10.88;;;;;;;-1.11;nan;102626.94;4983675;28;20030;-70
2024/01/29 02:26:32;;;;;;;22.15;11.02;;;;;;;;;;4967064;28;20246;-70
2024/01/29 02:28:57;;;;;;;24.23;10.00;;;;;;;;;;4982035;28;20117;-70
2024/01/29 02:31:23;;;;;;;33.83;12.00;;;;;;;-0.73;nan;102703.09;4979069;28;20281;-70
2024/01/29 02:33:49;;;;;;;21.67;10.43;;;;;;;-1.15;nan;102629.78;4979206;28;20895;-70
2024/01/29 02:36:16;;;;;;;21.65;10.40;;;;;;;-1.22;nan;102613.84;4982858;28;20026;-69
2024/01/29 02:38:42;;;;;;;23.42;10.48;;;;;;;-1.21;nan;102617.25;4971356;28;20447;-69
2024/01/29 02:41:10;;;;;;;28.90;11.15;;;;;;;-1.31;nan;102604.88;4977899;28;20509;-69
2024/01/29 02:43:36;;;;;;;24.70;10.52;;;;;;;-1.23;nan;102614.75;4965789;28;20030;-68
2024/01/29 02:46:01;;;;;;;29.40;12.40;;;;;;;-1.21;nan;102628.41;4979525;28;20019;-70
2024/01/29 02:48:27;;;;;;;29.95;11.13;;;;;;;-1.23;nan;102630.25;4982266;28;20030;-69
2024/01/29 02:50:52;;;;;;;26.58;11.55;;;;;;;-1.27;nan;102631.34;4982873;28;20049;-69
2024/01/29 02:53:18;;;;;;;29.13;11.52;;;;;;;-1.32;nan;102623.91;4983568;28;20109;-69
2024/01/29 02:55:43;;;;;;;28.02;10.68;;;;;;;-1.32;nan;102626.50;4966928;28;20027;-69
2024/01/29 02:58:09;;;;;;;24.63;11.15;;;;;;;-1.34;nan;102632.66;4964365;28;20046;-70
2024/01/29 03:00:34;;;;;;;31.73;12.27;;;;;;;-1.42;nan;102633.09;4965305;28;20038;-70
2024/01/29 03:03:00;;;;;;;29.88;12.30;;;;;;;-1.52;nan;102617.31;4983179;28;20084;-69
2024/01/29 03:05:25;;;;;;;32.20;12.32;;;;;;;-1.51;nan;102621.59;4978278;28;20022;-70
2024/01/29 03:07:51;;;;;;;23.27;11.13;;;;;;;-1.39;nan;102639.84;4980533;28;20072;-69
2024/01/29 03:10:16;;;;;;;31.25;12.10;;;;;;;-1.42;nan;102632.28;4983590;28;20060;-69
2024/01/29 03:12:42;;;;;;;28.55;12.38;;;;;;;-1.39;nan;102647.59;4982248;28;20030;-68
2024/01/29 03:15:08;;;;;;;27.45;12.00;;;;;;;-1.48;nan;102635.22;4980314;28;20027;-70
2024/01/29 03:17:33;;;;;;;26.83;11.80;;;;;;;-1.57;nan;102627.09;4979838;28;20397;-69
2024/01/29 03:19:58;;;;;;;27.23;11.77;;;;;;;-1.61;nan;102637.69;4981708;28;20058;-69
2024/01/29 03:22:24;;;;;;;24.95;11.20;;;;;;;-1.60;nan;102647.13;4982699;28;20069;-69
2024/01/29 03:24:49;;;;;;;27.38;11.40;;;;;;;-1.73;nan;102628.91;4976370;28;20077;-68
2024/01/29 03:27:15;;;;;;;27.40;12.55;;;;;;;-1.63;nan;102652.47;4965093;28;20022;-68
2024/01/29 03:29:40;;;;;;;36.10;14.55;;;;;;;-1.68;nan;102626.88;4983311;28;20105;-66
2024/01/29 03:32:06;;;;;;;29.02;12.30;;;;;;;-1.61;nan;102635.94;4979661;28;20030;-69
2024/01/29 03:34:32;;;;;;;27.67;12.40;;;;;;;-1.55;nan;102645.09;4978494;28;20034;-70
2024/01/29 03:36:57;;;;;;;24.65;11.13;;;;;;;-1.54;nan;102639.81;4980136;28;20057;-69
2024/01/29 03:39:23;;;;;;;27.63;11.80;;;;;;;-1.47;nan;102644.66;4979611;28;20031;-68
2024/01/29 03:41:48;;;;;;;29.45;12.30;;;;;;;-1.51;nan;102636.22;4969775;28;20041;-68
2024/01/29 03:44:15;;;;;;;30.95;12.27;;;;;;;-1.47;nan;102640.31;4978395;28;20069;-68
2024/01/29 03:46:41;;;;;;;24.08;11.38;;;;;;;-1.46;nan;102644.56;4981041;28;20031;-69
2024/01/29 03:49:08;;;;;;;29.65;11.43;;;;;;;-1.43;nan;102638.38;4978795;28;20047;-67
2024/01/29 03:51:33;;;;;;;29.35;11.85;;;;;;;-1.40;nan;102640.78;4979765;28;20033;-70
2024/01/29 03:53:59;;;;;;;27.00;11.30;;;;;;;-1.43;nan;102636.63;4977685;28;20026;-69
2024/01/29 03:56:24;;;;;;;26.58;10.88;;;;;;;-1.43;nan;102634.03;4977723;28;20027;-68
2024/01/29 03:58:50;;;;;;;28.77;12.32;;;;;;;-1.40;nan;102638.19;4978961;28;20046;-69
2024/01/29 04:01:27;;;;;;;27.15;11.77;;;;;;;-1.36;nan;102647.44;4977193;28;20438;-69
2024/01/29 04:03:53;;;;;;;29.98;11.10;;;;;;;-1.41;nan;102645.13;4969007;28;20470;-68
2024/01/29 04:06:19;;;;;;;31.20;12.88;;;;;;;-1.40;nan;102641.59;4979496;28;20121;-68
2024/01/29 04:08:44;;;;;;;28.55;12.88;;;;;;;-1.51;nan;102641.41;4977526;28;20034;-68
2024/01/29 04:11:10;;;;;;;32.28;13.30;;;;;;;-1.54;nan;102650.16;4969000;28;20026;-69
2024/01/29 04:13:35;;;;;;;29.83;13.57;;;;;;;-1.55;nan;102656.25;4980143;28;20106;-68
2024/01/29 04:16:01;;;;;;;30.98;13.93;;;;;;;-1.62;nan;102654.13;4977600;28;20088;-69
2024/01/29 04:18:26;;;;;;;36.28;15.00;;;;;;;-1.65;nan;102649.13;4979048;28;20053;-68
2024/01/29 04:20:52;;;;;;;30.38;13.90;;;;;;;-1.71;nan;102651.16;4976301;28;20050;-68
2024/01/29 04:23:18;;;;;;;35.38;14.82;;;;;;;-1.80;nan;102646.50;4977824;28;20029;-68
2024/01/29 04:25:43;;;;;;;38.70;14.43;;;;;;;-1.88;nan;102650.47;4981310;28;20023;-68
2024/01/29 04:28:09;;;;;;;36.30;14.95;;;;;;;-1.91;nan;102640.31;4985304;28;20038;-68
2024/01/29 04:30:34;;;;;;;38.03;15.13;;;;;;;-1.79;nan;102652.53;4975115;28;20029;-68
2024/01/29 04:32:59;;;;;;;41.17;16.88;;;;;;;-1.75;nan;102652.28;4980180;28;20035;-68
2024/01/29 04:35:25;;;;;;;39.80;16.33;;;;;;;-1.73;nan;102657.31;4978002;28;20030;-67
2024/01/29 04:37:50;;;;;;;38.83;16.27;;;;;;;-1.77;nan;102653.28;4974960;28;20030;-68
2024/01/29 04:40:16;;;;;;;33.22;16.05;;;;;;;-1.73;nan;102659.91;4978212;28;20547;-69
2024/01/29 04:42:41;;;;;;;33.22;15.05;;;;;;;-1.72;nan;102666.75;4979235;28;20030;-70
2024/01/29 04:45:07;;;;;;;34.17;16.58;;;;;;;-1.81;nan;102669.88;4977533;28;20030;-68
2024/01/29 04:47:32;;;;;;;40.35;18.63;;;;;;;-1.88;nan;102671.97;4978460;28;20042;-70
2024/01/29 04:49:58;;;;;;;39.28;17.77;;;;;;;-1.89;nan;102672.03;4957789;28;20026;-69
2024/01/29 04:52:23;;;;;;;43.40;17.98;;;;;;;-1.96;nan;102662.06;4978164;28;20624;-68
2024/01/29 04:54:49;;;;;;;42.30;17.95;;;;;;;-1.86;nan;102662.38;4980889;28;20101;-69
2024/01/29 04:57:14;;;;;;;39.22;17.98;;;;;;;-1.93;nan;102646.41;4977274;28;20050;-70
2024/01/29 04:59:40;;;;;;;43.13;18.63;;;;;;;-1.80;nan;102666.34;4978337;28;20045;-69
2024/01/29 05:02:06;;;;;;;41.97;16.35;;;;;;;-1.78;nan;102662.75;4978409;28;20026;-70
2024/01/29 05:04:31;;;;;;;36.13;15.38;;;;;;;-1.81;nan;102667.28;4980640;28;20037;-71
2024/01/29 05:06:57;;;;;;;40.97;15.38;;;;;;;-1.79;nan;102663.69;4980963;28;20034;-70
2024/01/29 05:09:22;;;;;;;36.70;15.15;;;;;;;-1.87;nan;102668.44;4978738;28;20030;-70
2024/01/29 05:11:47;;;;;;;33.95;15.85;;;;;;;-1.87;nan;102671.03;4981135;28;21314;-69
2024/01/29 05:14:13;;;;;;;39.97;16.88;;;;;;;-1.83;nan;102684.59;4978037;28;20038;-70
2024/01/29 05:16:38;;;;;;;40.30;16.40;;;;;;;-1.85;nan;102681.28;4980925;28;20019;-71
2024/01/29 05:19:04;;;;;;;35.58;16.70;;;;;;;-1.93;nan;102669.63;4965033;28;20026;-72
2024/01/29 05:21:29;;;;;;;37.50;16.08;;;;;;;-1.78;nan;102692.91;4977924;28;20031;-72
2024/01/29 05:23:55;;;;;;;42.17;17.27;;;;;;;-1.86;nan;102683.03;4970751;28;20033;-71
2024/01/29 05:26:20;;;;;;;43.55;19.73;;;;;;;-1.99;nan;102664.84;4978259;28;20054;-72
2024/01/29 05:28:45;;;;;;;48.33;21.63;;;;;;;-1.86;nan;102689.97;4965054;28;20026;-72
2024/01/29 05:31:11;;;;;;;55.05;22.00;;;;;;;-1.86;nan;102706.28;4972957;28;20388;-71
2024/01/29 05:33:36;;;;;;;55.03;22.85;;;;;;;-1.85;nan;102694.19;4976730;28;20041;-71
2024/01/29 05:36:02;;;;;;;62.33;24.95;;;;;;;-1.89;nan;102682.34;4979529;28;20030;-71
2024/01/29 05:38:27;;;;;;;59.38;25.23;;;;;;;-1.95;nan;102679.22;4967926;28;20040;-71
2024/01/29 05:40:53;;;;;;;68.32;30.40;;;;;;;-1.88;nan;102696.94;4980299;28;20030;-71
2024/01/29 05:43:18;;;;;;;65.57;28.40;;;;;;;-1.97;nan;102695.72;4981415;28;20034;-72
2024/01/29 05:45:46;;;;;;;63.13;28.02;;;;;;;-2.01;nan;102710.56;4978707;28;20011;-72
2024/01/29 05:48:11;;;;;;;65.57;28.92;;;;;;;-2.38;nan;102667.88;4983211;28;20106;-72
2024/01/29 05:50:37;;;;;;;65.00;28.27;;;;;;;-2.10;nan;102705.06;4983455;28;20118;-71
2024/01/29 05:53:02;;;;;;;56.33;25.85;;;;;;;-2.12;nan;102694.00;4986463;28;20061;-72
2024/01/29 05:55:28;;;;;;;56.05;24.77;;;;;;;-2.06;nan;102697.06;4977678;28;20473;-71
2024/01/29 05:57:54;;;;;;;47.78;21.45;;;;;;;-2.08;nan;102686.00;4978881;28;20540;-71
2024/01/29 06:00:20;;;;;;;48.13;21.45;;;;;;;-2.11;nan;102688.72;4980517;28;20026;-72
2024/01/29 06:02:47;;;;;;;58.90;22.35;;;;;;;-2.23;nan;102672.16;4980773;28;21246;-71
2024/01/29 06:05:13;;;;;;;55.30;22.60;;;;;;;-2.10;nan;102702.50;4981653;28;20089;-72
2024/01/29 06:07:39;;;;;;;54.13;23.10;;;;;;;-2.28;nan;102678.50;4980997;28;20419;-71
2024/01/29 06:10:05;;;;;;;59.30;23.42;;;;;;;-2.14;nan;102701.81;4979863;28;20029;-70
2024/01/29 06:12:31;;;;;;;50.40;22.13;;;;;;;-2.36;nan;102664.28;4983747;28;20037;-70
2024/01/29 06:14:56;;;;;;;50.55;21.67;;;;;;;-2.10;nan;102708.47;4978098;28;20023;-72
2024/01/29 06:17:22;;;;;;;59.28;22.90;;;;;;;-2.18;nan;102701.16;4966855;28;20114;-72
2024/01/29 06:19:47;;;;;;;58.20;21.77;;;;;;;-2.05;nan;102732.28;4980246;28;20141;-72
2024/01/29 06:22:13;;;;;;;60.75;23.02;;;;;;;-2.17;nan;102710.56;4981620;28;20101;-71
2024/01/29 06:24:38;;;;;;;60.22;22.98;;;;;;;-2.18;nan;102732.13;4981380;28;20019;-71
2024/01/29 06:27:04;;;;;;;58.83;23.65;;;;;;;-2.12;nan;102732.72;4981164;28;20037;-72
2024/01/29 06:29:29;;;;;;;52.50;23.27;;;;;;;-2.16;nan;102721.72;4980826;28;20034;-71
2024/01/29 06:31:55;;;;;;;51.95;23.45;;;;;;;-2.10;nan;102728.31;4977985;28;20042;-71
2024/01/29 06:34:23;;;;;;;60.95;25.70;;;;;;;-2.40;nan;102675.69;4980109;28;20034;-72
2024/01/29 06:36:51;;;;;;;65.68;26.90;;;;;;;-2.11;nan;102740.34;4981299;28;20476;-70
2024/01/29 06:39:16;;;;;;;69.63;28.13;;;;;;;-2.06;nan;102740.97;4983637;28;20038;-69
2024/01/29 06:41:42;;;;;;;79.07;29.58;;;;;;;-2.09;nan;102735.94;4982145;28;20237;-70
2024/01/29 06:44:07;;;;;;;73.93;30.25;;;;;;;-2.05;nan;102732.28;4967264;28;20030;-71
2024/01/29 06:46:32;;;;;;;79.22;32.25;;;;;;;-2.21;nan;102710.81;4985392;28;20085;-70
2024/01/29 06:48:58;;;;;;;91.13;33.78;;;;;;;-2.01;nan;102740.69;4981962;28;20086;-70
2024/01/29 06:51:23;;;;;;;97.32;36.75;;;;;;;-1.92;nan;102742.75;4981271;28;20600;-70
2024/01/29 06:53:49;;;;;;;82.47;34.08;;;;;;;-1.93;nan;102738.53;4983098;28;20030;-69
2024/01/29 06:56:14;;;;;;;77.68;33.40;;;;;;;-1.79;nan;102767.00;4982033;28;20101;-71
2024/01/29 06:58:40;;;;;;;91.38;35.53;;;;;;;-1.85;nan;102753.59;4982527;28;20081;-70
2024/01/29 07:01:06;;;;;;;88.68;34.20;;;;;;;-1.72;nan;102755.41;4983577;28;20041;-71
2024/01/29 07:03:32;;;;;;;76.45;30.73;;;;;;;-1.57;nan;102764.03;4979424;28;20491;-71
2024/01/29 07:05:58;;;;;;;71.93;29.42;;;;;;;-1.50;nan;102761.94;4983431;28;20033;-69
2024/01/29 07:08:26;;;;;;;71.55;29.60;;;;;;;-1.39;nan;102759.56;4967414;28;20030;-68
2024/01/29 07:10:52;;;;;;;44.00;20.47;;;;;;;-1.21;nan;102762.00;4981079;28;20062;-69
2024/01/29 07:13:17;;;;;;;51.53;22.92;;;;;;;-1.29;nan;102744.38;4971323;28;20073;-68
2024/01/29 07:15:43;;;;;;;59.53;26.13;;;;;;;-1.17;nan;102750.56;4965455;28;20061;-68
2024/01/29 07:18:09;;;;;;;53.58;22.73;;;;;;;-1.12;nan;102739.03;4981326;28;20057;-69
2024/01/29 07:20:39;;;;;;;59.78;25.15;;;;;;;-1.02;nan;102746.25;4980182;28;20129;-69
2024/01/29 07:23:05;;;;;;;53.83;23.25;;;;;;;-0.91;nan;102761.94;4981881;28;20041;-69
2024/01/29 07:25:31;;;;;;;51.97;22.10;;;;;;;-1.24;nan;102700.97;4982122;28;20496;-69
2024/01/29 07:28:02;;;;;;;50.63;21.83;;;;;;;-0.84;nan;102765.00;4989666;28;20026;-68
2024/01/29 07:30:27;;;;;;;41.22;19.02;;;;;;;-0.95;nan;102748.38;4986513;28;20480;-68
2024/01/29 07:32:53;;;;;;;48.95;20.27;;;;;;;-0.80;nan;102763.91;4985190;28;20038;-68
2024/01/29 07:35:18;;;;;;;53.55;20.08;;;;;;;-0.82;nan;102756.22;4972464;28;20815;-68
2024/01/29 07:37:44;;;;;;;47.78;18.63;;;;;;;-0.77;nan;102761.94;4985896;28;20056;-70
2024/01/29 07:40:09;;;;;;;43.17;18.75;;;;;;;-0.72;nan;102769.44;4983304;28;20104;-71
2024/01/29 07:42:36;;;;;;;43.67;19.35;;;;;;;-0.70;nan;102760.66;4980405;28;20101;-71
2024/01/29 07:45:01;;;;;;;52.85;18.15;;;;;;;-0.68;nan;102783.84;4968727;28;20426;-70
2024/01/29 07:47:27;;;;;;;53.95;18.50;;;;;;;-0.98;nan;102766.66;4964695;28;20036;-70
2024/01/29 07:49:52;;;;;;;40.33;19.25;;;;;;;-1.00;nan;102762.50;4983930;28;20471;-69
2024/01/29 07:52:18;;;;;;;52.20;19.98;;;;;;;-0.92;nan;102776.63;4973366;28;20061;-70
2024/01/29 07:54:43;;;;;;;51.05;19.27;;;;;;;-0.96;nan;102771.72;4970348;28;20030;-69
2024/01/29 07:57:08;;;;;;;44.25;18.25;;;;;;;-1.28;nan;102733.09;4986585;28;20138;-70
2024/01/29 07:59:34;;;;;;;59.78;17.60;;;;;;;-0.99;nan;102771.91;4984541;28;20069;-70
2024/01/29 08:01:59;;;;;;;74.82;17.45;;;;;;;-1.07;nan;102754.28;4985886;28;20030;-70
2024/01/29 08:04:25;;;;;;;52.63;19.13;;;;;;;-1.01;nan;102776.34;4978648;28;20034;-69
2024/01/29 08:06:50;;;;;;;57.80;20.40;;;;;;;-1.02;nan;102774.69;4985035;28;20053;-71
2024/01/29 08:09:16;;;;;;;63.72;19.80;;;;;;;-1.01;nan;102773.75;4980152;28;20022;-70
2024/01/29 08:11:41;;;;;;;60.03;22.10;;;;;;;-1.01;nan;102776.34;4982069;28;20122;-72
2024/01/29 08:14:07;;;;;;;67.95;21.60;;;;;;;-0.98;nan;102766.66;4978132;28;20026;-70
2024/01/29 08:16:32;;;;;;;70.10;21.88;;;;;;;-1.02;nan;102759.19;4980273;28;20023;-68
2024/01/29 08:18:58;;;;;;;43.20;18.30;;;;;;;-0.93;nan;102766.41;4983026;28;20497;-71
2024/01/29 08:21:24;;;;;;;46.33;19.27;;;;;;;-0.94;nan;102762.13;4966420;28;20050;-70
2024/01/29 08:23:49;;;;;;;74.75;19.08;;;;;;;-0.89;nan;102757.50;4968506;28;20061;-70
2024/01/29 08:26:20;;;;;;;73.80;18.60;;;;;;;-1.19;nan;102727.38;4965734;28;20053;-69
2024/01/29 08:28:45;;;;;;;43.72;18.27;;;;;;;-1.01;nan;102753.06;4983402;28;20023;-70
2024/01/29 08:31:11;;;;;;;57.97;19.63;;;;;;;-0.89;nan;102757.50;4961786;28;20023;-69
2024/01/29 08:33:37;;;;;;;65.90;21.30;;;;;;;-0.86;nan;102770.28;4964978;28;20056;-69
2024/01/29 08:36:03;;;;;;;67.00;21.67;;;;;;;-0.84;nan;102770.19;4979582;28;20065;-69
2024/01/29 08:38:28;;;;;;;57.45;21.42;;;;;;;-0.77;nan;102769.72;4981360;28;20046;-70
2024/01/29 08:40:55;;;;;;;54.03;22.17;;;;;;;-0.71;nan;102776.28;4978945;28;20105;-69
2024/01/29 08:43:20;;;;;;;57.63;20.73;;;;;;;-0.79;nan;102756.06;4982943;28;20154;-69
2024/01/29 08:45:46;;;;;;;58.88;21.17;;;;;;;-0.69;nan;102783.03;4983495;28;20034;-69
2024/01/29 08:48:11;;;;;;;71.60;21.17;;;;;;;-0.90;nan;102779.13;4980386;28;20444;-70
2024/01/29 08:50:37;;;;;;;57.70;20.58;;;;;;;-0.95;nan;102776.81;4981578;28;20029;-70
2024/01/29 08:53:03;;;;;;;56.33;21.00;;;;;;;-0.79;nan;102796.59;4978132;28;20031;-70
2024/01/29 08:55:30;;;;;;;52.38;21.88;;;;;;;-0.74;nan;102795.41;4980525;28;20074;-69
2024/01/29 08:57:56;;;;;;;74.55;25.50;;;;;;;-0.72;nan;102793.56;4981177;28;20138;-71
2024/01/29 09:00:22;;;;;;;98.72;24.48;;;;;;;-0.71;nan;102804.75;4980124;28;20392;-70
2024/01/29 09:02:49;;;;;;;70.68;25.10;;;;;;;-0.66;nan;102797.53;4980596;28;20026;-70
2024/01/29 09:05:16;;;;;;;120.68;29.25;;;;;;;-0.79;nan;102797.44;4978390;28;20037;-71
2024/01/29 09:07:41;;;;;;;84.97;27.40;;;;;;;-0.67;nan;102812.25;4980007;28;20030;-70
2024/01/29 09:10:08;;;;;;;90.63;26.98;;;;;;;-0.68;nan;102805.38;4977337;28;20069;-70
2024/01/29 09:12:33;;;;;;;91.72;27.85;;;;;;;-0.59;nan;102813.53;4977390;28;20022;-70
2024/01/29 09:14:59;;;;;;;87.90;25.90;;;;;;;-0.65;nan;102802.63;4976382;28;20038;-70
2024/01/29 09:17:24;;;;;;;74.20;26.27;;;;;;;-0.62;nan;102806.78;4980143;28;20026;-70
2024/01/29 09:19:51;;;;;;;81.57;25.17;;;;;;;-0.72;nan;102793.56;4979046;28;20023;-70
2024/01/29 09:22:17;;;;;;;68.60;22.40;;;;;;;-0.67;nan;102807.06;4979538;28;20033;-70
2024/01/29 09:24:43;;;;;;;54.75;22.42;;;;;;;-0.63;nan;102801.69;4980082;28;20439;-71
2024/01/29 09:27:08;;;;;;;58.90;21.77;;;;;;;-0.63;nan;102809.47;4968945;28;20031;-70
2024/01/29 09:29:34;;;;;;;65.82;22.02;;;;;;;-0.60;nan;102812.69;4979011;28;20037;-70
2024/01/29 09:31:59;;;;;;;68.25;22.60;;;;;;;-0.64;nan;102798.28;4981983;28;20049;-70
2024/01/29 09:34:27;;;;;;;74.03;24.60;;;;;;;-0.56;nan;102813.34;4982096;28;20026;-70
2024/01/29 09:36:53;;;;;;;73.47;24.60;;;;;;;-0.63;nan;102786.16;4978146;28;20061;-71
2024/01/29 09:39:18;;;;;;;66.35;24.08;;;;;;;-0.43;nan;102796.16;4976849;28;20484;-70
2024/01/29 09:41:46;;;;;;;57.40;21.85;;;;;;;-0.28;nan;102802.97;4980269;28;20539;-71
2024/01/29 09:44:12;;;;;;;59.80;22.50;;;;;;;-0.23;nan;102800.94;4982625;28;20030;-70
2024/01/29 09:46:40;;;;;;;69.88;22.27;;;;;;;-0.28;nan;102774.50;4960708;28;20030;-70
2024/01/29 09:49:07;;;;;;;52.00;21.52;;;;;;;-0.01;nan;102815.97;4978309;28;20031;-70
2024/01/29 09:51:34;;;;;;;57.25;22.08;;;;;;;0.03;nan;102808.84;4980865;28;20057;-70
2024/01/29 09:54:01;;;;;;;60.08;22.45;;;;;;;0.25;nan;102816.09;4976812;28;20487;-70
2024/01/29 09:56:27;;;;;;;67.35;22.42;;;;;;;0.33;nan;102810.41;4980462;28;20031;-70
2024/01/29 09:58:54;;;;;;;54.13;22.52;;;;;;;0.28;nan;102781.38;4975214;28;20073;-70
2024/01/29 10:01:20;;;;;;;51.28;21.67;;;;;;;0.47;nan;102799.16;4977611;28;20034;-74
2024/01/29 10:03:46;;;;;;;58.70;20.33;;;;;;;0.41;nan;102800.41;4978135;28;20038;-72
2024/01/29 10:06:12;;;;;;;50.30;20.83;;;;;;;0.42;nan;102802.06;4964858;28;20031;-72
2024/01/29 10:08:38;;;;;;;42.05;18.10;;;;;;;0.31;nan;102783.75;4979208;28;20565;-72
2024/01/29 10:11:04;;;;;;;50.33;20.60;;;;;;;0.40;nan;102807.31;4978151;28;20092;-72
2024/01/29 10:13:30;;;;;;;51.92;21.02;;;;;;;0.39;nan;102804.84;4959399;28;20031;-73
2024/01/29 10:15:56;;;;;;;45.05;19.83;;;;;;;0.25;nan;102791.94;4979479;28;20031;-72
2024/01/29 10:18:21;;;;;;;50.85;21.48;;;;;;;0.34;nan;102805.13;4978634;28;20860;-71
2024/01/29 10:20:47;;;;;;;47.47;20.48;;;;;;;0.35;nan;102801.59;4980117;28;20174;-71
2024/01/29 10:23:13;;;;;;;49.72;20.52;;;;;;;0.23;nan;102775.66;4978901;28;20025;-71
2024/01/29 10:25:39;;;;;;;51.38;21.42;;;;;;;0.39;nan;102803.09;4979348;28;20035;-72
2024/01/29 10:28:09;;;;;;;52.65;21.50;;;;;;;0.39;nan;102805.66;4982003;28;20026;-72
2024/01/29 10:30:35;;;;;;;52.17;22.17;;;;;;;0.14;nan;102751.16;4977883;28;20888;-74
2024/01/29 10:33:00;;;;;;;59.42;23.70;;;;;;;0.36;nan;102781.69;4977031;28;20110;-72
2024/01/29 10:35:26;;;;;;;67.55;25.70;;;;;;;0.37;nan;102781.59;4982058;28;20396;-73
2024/01/29 10:37:54;;;;;;;66.65;24.75;;;;;;;0.52;nan;102792.75;4983632;28;20642;-71
2024/01/29 10:40:21;;;;;;;42.42;17.60;;;;;;;1.04;nan;102855.94;4980266;28;20035;-71
2024/01/29 10:42:49;;;;;;;69.13;25.95;;;;;;;0.71;nan;102782.00;4983744;28;20082;-71
2024/01/29 10:45:19;;;;;;;65.95;26.40;;;;;;;0.55;nan;102735.53;4985723;28;20112;-72
2024/01/29 10:47:52;;;;;;;72.57;28.00;;;;;;;0.67;nan;102738.22;4984384;28;20676;-71
2024/01/29 10:50:19;;;;;;;71.82;28.70;;;;;;;0.85;nan;102763.75;4983516;28;20034;-72
2024/01/29 10:52:46;;;;;;;69.30;27.13;;;;;;;0.68;nan;102734.72;4982575;28;20023;-72
2024/01/29 10:55:15;;;;;;;65.63;26.77;;;;;;;1.01;nan;102779.13;4982986;28;20534;-72
2024/01/29 10:57:45;;;;;;;68.28;26.42;;;;;;;0.96;nan;102767.38;4986947;28;20121;-73
2024/01/29 11:00:11;;;;;;;68.03;26.23;;;;;;;;;;4984501;28;20030;-72
2024/01/29 11:02:37;;;;;;;66.45;27.02;;;;;;;;;;4982689;28;20053;-72
2024/01/29 11:05:03;;;;;;;67.22;28.00;;;;;;;1.12;nan;102768.00;4983869;28;20034;-72
2024/01/29 11:07:30;;;;;;;71.10;29.77;;;;;;;1.15;nan;102754.00;4978670;28;20034;-72
2024/01/29 11:10:09;;;;;;;55.92;26.88;;;;;;;1.23;nan;102752.53;4984633;28;20034;-72
2024/01/29 11:12:37;;;;;;;55.72;25.05;;;;;;;1.27;nan;102766.97;4978337;28;20034;-72
2024/01/29 11:15:04;;;;;;;61.92;24.70;;;;;;;1.28;nan;102771.22;4983265;28;20042;-74
2024/01/29 11:17:30;;;;;;;55.97;24.45;;;;;;;1.38;nan;102758.44;4980676;28;20128;-72
2024/01/29 11:20:01;;;;;;;56.78;24.88;;;;;;;;;;4980112;28;20396;-73
2024/01/29 11:22:40;;;;;;;55.25;25.75;;;;;;;2.18;nan;102848.13;4983067;28;20026;-71
2024/01/29 11:25:17;;;;;;;57.30;25.95;;;;;;;1.74;nan;102762.00;4981613;28;20030;-73
2024/01/29 11:27:44;;;;;;;62.05;26.55;;;;;;;1.95;nan;102774.41;4981912;28;20121;-72